TimeEDT,TemperatureF,Dew PointF,Humidity,Sea Level PressureIn,VisibilityMPH,Wind Direction,Wind SpeedMPH,Gust SpeedMPH,PrecipitationIn,Events,Conditions,WindDirDegrees,DateUTC
12:53 AM,43.0,35.1,74,29.81,10.0,SSW,4.6,-,N/A,,Clear,210,2011-10-18 04:53:00
1:53 AM,42.1,35.1,76,29.80,10.0,SSW,4.6,-,N/A,,Clear,210,2011-10-18 05:53:00
2:53 AM,39.9,34.0,79,29.80,10.0,SSW,6.9,-,N/A,,Clear,210,2011-10-18 06:53:00
3:53 AM,41.0,35.1,79,29.79,10.0,SW,6.9,-,N/A,,Clear,220,2011-10-18 07:53:00
4:53 AM,39.0,34.0,82,29.79,10.0,SSW,4.6,-,N/A,,Clear,200,2011-10-18 08:53:00
5:53 AM,39.0,35.1,86,29.80,10.0,SSW,6.9,-,N/A,,Clear,200,2011-10-18 09:53:00
6:53 AM,39.0,35.1,86,29.81,10.0,SSW,4.6,-,N/A,,Clear,200,2011-10-18 10:53:00
7:53 AM,39.0,35.1,86,29.81,10.0,SSW,3.5,-,N/A,,Clear,200,2011-10-18 11:53:00
8:53 AM,39.9,36.0,86,29.82,10.0,South,4.6,-,N/A,,Clear,190,2011-10-18 12:53:00
9:53 AM,43.0,37.9,82,29.83,10.0,Calm,Calm,-,N/A,,Clear,0,2011-10-18 13:53:00
10:53 AM,46.4,39.2,76,29.82,10.0,South,3.5,-,N/A,,Clear,170,2011-10-18 14:53:00
11:53 AM,50.0,41.0,71,29.83,10.0,Calm,Calm,-,N/A,,Clear,0,2011-10-18 15:53:00
12:53 PM,53.6,41.0,62,29.82,10.0,Calm,Calm,-,N/A,,Clear,0,2011-10-18 16:53:00
1:53 PM,53.6,39.2,58,29.80,-9999.0,North,-9999.0,-,N/A,,Clear,0,2011-10-18 17:53:00
2:53 PM,55.0,39.0,55,29.81,10.0,Calm,Calm,-,N/A,,Partly Cloudy,0,2011-10-18 18:53:00
3:53 PM,54.0,39.9,59,29.81,10.0,North,5.8,-,N/A,,Partly Cloudy,350,2011-10-18 19:53:00
4:53 PM,53.1,39.0,59,29.81,8.0,North,6.9,-,N/A,,Overcast,360,2011-10-18 20:53:00
5:53 PM,52.0,39.0,61,29.80,8.0,North,4.6,-,N/A,,Overcast,10,2011-10-18 21:53:00
6:53 PM,52.0,39.9,63,29.82,6.0,Calm,Calm,-,N/A,,Haze,0,2011-10-18 22:53:00
7:53 PM,51.8,41.0,67,29.82,5.0,Calm,Calm,-,N/A,Rain,Light Rain,0,2011-10-18 23:53:00
8:53 PM,48.9,42.1,77,29.84,5.0,ESE,3.5,-,0.00,Rain,Light Rain,110,2011-10-19 00:53:00
9:53 PM,46.9,42.1,83,29.84,7.0,ESE,3.5,-,0.01,,Overcast,120,2011-10-19 01:53:00
10:20 PM,46.4,42.8,87,29.82,7.0,East,3.5,-,N/A,,Overcast,90,2011-10-19 02:20:00
10:34 PM,46.4,42.8,87,29.82,7.0,Calm,Calm,-,N/A,,Overcast,0,2011-10-19 02:34:00
10:53 PM,46.9,42.1,83,29.83,7.0,Calm,Calm,-,N/A,,Overcast,0,2011-10-19 02:53:00
11:53 PM,46.4,41.0,81,29.81,9.0,Variable,3.5,-,N/A,,Overcast,0,2011-10-19 03:53:00